createdAt,value
2019-02-05T00:00:18.223Z,76.16
2019-02-05T00:01:17.369Z,76.16
2019-02-05T00:02:17.367Z,76.06
2019-02-05T00:03:17.360Z,76.16
2019-02-05T00:04:17.333Z,76.37
2019-02-05T00:05:17.319Z,76.72
2019-02-05T00:06:18.226Z,76.06
2019-02-05T00:07:17.297Z,76.20
2019-02-05T00:08:17.343Z,76.40
2019-02-05T00:09:17.276Z,76.51
2019-02-05T00:10:17.270Z,76.51
2019-02-05T00:11:17.338Z,76.40
2019-02-05T00:12:17.269Z,76.40
2019-02-05T00:13:17.236Z,76.40
2019-02-05T00:14:17.234Z,76.51
2019-02-05T00:15:17.216Z,76.30
2019-02-05T00:16:17.207Z,76.51
2019-02-05T00:17:17.201Z,76.33
2019-02-05T00:18:17.176Z,76.54
2019-02-05T00:19:17.175Z,76.75
2019-02-05T00:20:17.154Z,76.20
2019-02-05T00:21:17.152Z,76.33
2019-02-05T00:22:17.136Z,76.23
2019-02-05T00:23:17.122Z,76.20
2019-02-05T00:24:17.120Z,76.12
2019-02-05T00:25:17.118Z,76.20
2019-02-05T00:26:17.093Z,76.44
2019-02-05T00:27:17.177Z,76.75
2019-02-05T00:28:17.066Z,76.86
2019-02-05T00:29:17.053Z,77.03
2019-02-05T00:30:17.057Z,76.23
2019-02-05T00:31:17.054Z,76.44
2019-02-05T00:32:17.025Z,76.33
2019-02-05T00:33:17.011Z,76.12
2019-02-05T00:34:17.000Z,76.44
2019-02-05T00:35:17.027Z,76.33
2019-02-05T00:36:16.996Z,76.12
2019-02-05T00:37:16.980Z,77.69
2019-02-05T00:38:16.954Z,76.12
2019-02-05T00:39:16.946Z,76.44
2019-02-05T00:40:16.995Z,75.98
2019-02-05T00:41:16.928Z,76.51
2019-02-05T00:42:17.031Z,75.98
2019-02-05T00:43:16.901Z,76.44
2019-02-05T00:44:16.895Z,76.20
2019-02-05T00:45:16.877Z,76.61
2019-02-05T00:46:16.894Z,76.51
2019-02-05T00:47:16.861Z,76.44
2019-02-05T00:48:16.850Z,76.23
2019-02-05T00:49:16.838Z,76.12
2019-02-05T00:50:16.920Z,76.44
2019-02-05T00:51:16.813Z,76.23
2019-02-05T00:52:16.823Z,76.23
2019-02-05T00:53:16.795Z,76.33
2019-02-05T00:54:16.788Z,76.54
2019-02-05T00:55:16.771Z,76.33
2019-02-05T00:56:17.881Z,76.44
2019-02-05T00:57:16.782Z,76.33
2019-02-05T00:58:16.738Z,76.23
2019-02-05T00:59:16.730Z,76.54
2019-02-05T01:00:16.713Z,76.23
2019-02-05T01:01:16.703Z,76.54
2019-02-05T01:02:16.691Z,76.23
2019-02-05T01:03:16.739Z,76.33
2019-02-05T01:04:16.668Z,76.54
2019-02-05T01:05:16.664Z,76.54
2019-02-05T01:06:16.646Z,76.12
2019-02-05T01:07:16.642Z,76.23
2019-02-05T01:08:16.680Z,76.44
2019-02-05T01:09:16.621Z,76.37
2019-02-05T01:10:16.608Z,76.33
2019-02-05T01:11:16.596Z,76.44
2019-02-05T01:12:16.594Z,76.65
2019-02-05T01:13:16.569Z,76.54
2019-02-05T01:14:16.564Z,76.54
2019-02-05T01:15:16.554Z,76.12
2019-02-05T01:16:16.536Z,76.65
2019-02-05T01:17:16.531Z,76.33
2019-02-05T01:18:16.523Z,75.92
2019-02-05T01:19:16.508Z,76.02
2019-02-05T01:20:16.495Z,76.02
2019-02-05T01:21:16.529Z,76.23
2019-02-05T01:22:16.471Z,76.12
2019-02-05T01:23:16.472Z,76.75
2019-02-05T01:24:16.452Z,76.02
2019-02-05T01:25:16.441Z,76.02
2019-02-05T01:26:16.432Z,76.12
2019-02-05T01:27:16.475Z,75.92
2019-02-05T01:28:16.421Z,76.12
2019-02-05T01:29:16.398Z,75.60
2019-02-05T01:30:16.387Z,75.71
2019-02-05T01:31:16.409Z,75.81
2019-02-05T01:32:16.384Z,75.92
2019-02-05T01:33:16.377Z,75.39
2019-02-05T01:34:16.336Z,75.05
2019-02-05T01:35:16.327Z,75.18
2019-02-05T01:36:16.315Z,76.23
2019-02-05T01:37:16.304Z,75.26
2019-02-05T01:38:16.300Z,74.73
2019-02-05T01:39:16.317Z,75.05
2019-02-05T01:40:16.276Z,74.77
2019-02-05T01:41:16.261Z,74.56
2019-02-05T01:42:16.253Z,74.87
2019-02-05T01:43:16.239Z,74.84
2019-02-05T01:44:16.231Z,74.63
2019-02-05T01:45:16.260Z,74.98
2019-02-05T01:46:16.204Z,74.77
2019-02-05T01:47:16.198Z,75.26
2019-02-05T01:48:16.187Z,74.77
2019-02-05T01:49:16.176Z,74.63
2019-02-05T01:50:16.213Z,74.04
2019-02-05T01:51:16.156Z,74.66
2019-02-05T01:52:16.139Z,74.87
2019-02-05T01:53:16.131Z,74.66
2019-02-05T01:54:16.125Z,74.98
2019-02-05T01:55:16.110Z,74.84
2019-02-05T01:56:16.107Z,74.45
2019-02-05T01:57:16.088Z,74.87
2019-02-05T01:58:16.076Z,74.11
2019-02-05T01:59:16.063Z,74.84
2019-02-05T02:00:16.054Z,74.87
2019-02-05T02:01:16.120Z,73.79
2019-02-05T02:02:16.032Z,73.48
2019-02-05T02:03:16.017Z,73.93
2019-02-05T02:04:16.013Z,73.83
2019-02-05T02:05:16.001Z,73.93
2019-02-05T02:06:15.983Z,73.93
2019-02-05T02:07:15.998Z,74.04
2019-02-05T02:08:15.967Z,73.62
2019-02-05T02:09:15.956Z,74.11
2019-02-05T02:10:15.939Z,74.04
2019-02-05T02:11:15.929Z,73.83
2019-02-05T02:12:15.998Z,73.93
2019-02-05T02:13:15.905Z,73.83
2019-02-05T02:14:15.902Z,74.01
2019-02-05T02:15:15.890Z,73.69
2019-02-05T02:16:15.875Z,73.48
2019-02-05T02:17:15.860Z,73.48
2019-02-05T04:29:54.924Z,72.72
2019-02-05T04:30:25.667Z,73.13
2019-02-05T04:31:25.651Z,73.66
2019-02-05T04:32:25.642Z,73.45
2019-02-05T04:33:25.629Z,73.45
2019-02-05T04:34:25.675Z,73.72
2019-02-05T04:35:25.635Z,74.80
2019-02-05T04:36:25.596Z,75.22
2019-02-05T04:37:25.629Z,76.16
2019-02-05T04:38:25.581Z,76.47
2019-02-05T04:39:25.565Z,77.20
2019-02-05T04:40:25.557Z,78.25
2019-02-05T04:41:25.548Z,79.74
2019-02-05T04:42:25.534Z,80.68
2019-02-05T04:43:25.606Z,81.10
2019-02-05T04:44:25.514Z,81.76
2019-02-05T04:45:33.713Z,82.60
2019-02-05T04:46:26.573Z,83.01
2019-02-05T04:47:25.485Z,84.48
2019-02-05T04:48:25.525Z,84.58
2019-02-05T04:49:25.462Z,84.58
2019-02-05T04:50:25.449Z,84.73
2019-02-05T04:51:25.435Z,84.89
2019-02-05T04:52:25.431Z,84.69
2019-02-05T04:53:25.453Z,84.69
2019-02-05T04:54:25.404Z,84.17
2019-02-05T04:55:25.390Z,83.64
2019-02-05T04:56:25.384Z,83.01
2019-02-05T04:57:25.406Z,83.12
2019-02-05T04:58:25.364Z,83.44
2019-02-05T04:59:25.348Z,82.91
2019-02-05T05:00:25.341Z,83.12
2019-02-05T05:01:25.329Z,82.70
2019-02-05T05:02:25.355Z,82.77
2019-02-05T05:03:25.304Z,82.81
2019-02-05T05:04:25.344Z,82.67
2019-02-05T05:05:25.288Z,83.12
2019-02-05T05:06:25.334Z,82.98
2019-02-05T05:07:25.265Z,82.87
2019-02-05T05:08:25.263Z,82.98
2019-02-05T05:09:25.321Z,82.87
2019-02-05T05:10:25.243Z,83.12
2019-02-05T05:11:25.219Z,82.70
2019-02-05T05:12:25.205Z,83.18
2019-02-05T05:13:25.198Z,83.08
2019-02-05T05:14:25.223Z,82.91
2019-02-05T05:15:25.230Z,82.98
2019-02-05T05:16:25.160Z,83.64
2019-02-05T05:17:25.162Z,83.08
2019-02-05T05:18:25.139Z,82.70
2019-02-05T05:19:25.137Z,82.60
2019-02-05T05:20:25.175Z,83.18
2019-02-05T05:21:25.107Z,82.98
2019-02-05T05:22:25.099Z,82.87
2019-02-05T05:23:25.087Z,82.87
2019-02-05T05:24:25.073Z,82.56
2019-02-05T05:25:25.094Z,82.87
2019-02-05T05:26:25.051Z,83.18
2019-02-05T05:27:25.046Z,82.04
2019-02-05T05:28:25.032Z,82.39
2019-02-05T05:29:25.037Z,81.52
2019-02-05T05:30:25.051Z,81.93
2019-02-05T05:31:25.001Z,82.04
2019-02-05T05:32:24.985Z,82.25
2019-02-05T05:33:24.974Z,81.10
2019-02-05T05:34:24.969Z,81.21
2019-02-05T05:35:24.957Z,81.73
2019-02-05T05:36:24.967Z,81.52
2019-02-05T05:37:24.942Z,80.89
2019-02-05T05:38:24.925Z,80.89
2019-02-05T05:39:24.913Z,80.58
2019-02-05T05:40:24.904Z,81.10
2019-02-05T05:41:24.969Z,81.10
2019-02-05T05:42:24.881Z,80.68
2019-02-05T05:43:24.867Z,80.89
2019-02-05T05:44:24.856Z,80.37
2019-02-05T05:45:24.850Z,80.68
2019-02-05T05:46:24.916Z,80.89
2019-02-05T05:47:24.909Z,80.54
2019-02-05T05:48:24.818Z,79.85
2019-02-05T05:49:24.805Z,79.39
2019-02-05T05:50:24.789Z,78.91
2019-02-05T05:51:24.816Z,79.01
2019-02-05T05:52:24.767Z,79.85
2019-02-05T05:53:24.756Z,79.85
2019-02-05T05:54:24.750Z,79.85
2019-02-05T05:55:24.739Z,78.87
2019-02-05T05:56:24.859Z,79.08
2019-02-05T05:57:24.753Z,78.77
2019-02-05T05:58:24.705Z,78.77
2019-02-05T05:59:24.690Z,79.08
2019-02-05T06:00:24.682Z,79.08
2019-02-05T06:01:24.673Z,78.97
2019-02-05T06:02:24.740Z,79.19
2019-02-05T06:03:24.650Z,79.39
2019-02-05T06:04:24.639Z,79.39
2019-02-05T06:05:24.623Z,78.87
2019-02-05T06:06:24.614Z,78.04
2019-02-05T06:07:24.617Z,77.83
2019-02-05T06:08:24.679Z,77.83
2019-02-05T06:09:24.589Z,77.94
2019-02-05T06:10:24.603Z,78.14
2019-02-05T06:11:24.557Z,77.62
2019-02-05T06:12:24.553Z,78.04
2019-02-05T06:13:24.549Z,77.83
2019-02-05T06:14:24.528Z,78.04
2019-02-05T06:15:24.627Z,78.04
2019-02-05T06:16:24.536Z,77.62
2019-02-05T06:17:24.509Z,77.94
2019-02-05T06:18:24.538Z,78.04
2019-02-05T06:19:24.482Z,77.72
2019-02-05T06:20:24.467Z,77.94
2019-02-05T06:21:24.459Z,78.11
2019-02-05T06:22:24.446Z,78.14
2019-02-05T06:23:24.434Z,78.00
2019-02-05T06:24:24.479Z,77.31
2019-02-05T06:25:24.414Z,77.00
2019-02-05T06:26:24.399Z,76.26
2019-02-05T06:27:24.391Z,77.00
2019-02-05T06:28:34.325Z,77.20
2019-02-05T06:29:25.404Z,77.41
2019-02-05T06:30:24.357Z,77.83
2019-02-05T06:31:24.475Z,77.94
2019-02-05T06:32:24.335Z,77.83
2019-02-05T06:33:24.326Z,77.48
2019-02-05T06:34:24.372Z,78.31
2019-02-05T06:35:24.304Z,78.35
2019-02-05T06:36:24.288Z,77.62
2019-02-05T06:37:24.297Z,76.65
2019-02-05T06:38:24.270Z,77.20
2019-02-05T06:39:24.256Z,75.92
2019-02-05T06:40:24.334Z,76.23
2019-02-05T06:41:24.240Z,76.33
2019-02-05T06:42:24.232Z,76.33
2019-02-05T06:43:24.212Z,77.37
2019-02-05T06:44:24.204Z,76.86
2019-02-05T06:45:24.198Z,77.27
2019-02-05T06:46:24.236Z,77.06
2019-02-05T06:47:24.167Z,77.17
2019-02-05T06:48:24.168Z,77.69
2019-02-05T06:49:24.155Z,77.80
2019-02-05T06:50:24.144Z,77.69
2019-02-05T06:51:24.132Z,77.69
2019-02-05T06:52:24.172Z,77.27
2019-02-05T06:53:24.112Z,77.17
2019-02-05T06:54:24.093Z,76.12
2019-02-05T06:55:24.081Z,77.58
2019-02-05T06:56:24.075Z,78.00
2019-02-05T06:57:24.093Z,77.48
2019-02-05T06:58:24.053Z,77.37
2019-02-05T06:59:24.042Z,76.65
2019-02-05T07:00:24.033Z,76.86
2019-02-05T07:01:24.076Z,77.80
2019-02-05T07:02:24.011Z,77.48
2019-02-05T07:03:23.995Z,77.17
2019-02-05T07:04:23.986Z,76.65
2019-02-05T07:05:23.973Z,77.37
2019-02-05T07:06:24.035Z,77.17
2019-02-05T07:07:23.952Z,76.43
2019-02-05T07:08:23.950Z,76.23
2019-02-05T07:09:23.934Z,76.33
2019-02-05T07:10:23.918Z,76.33
2019-02-05T07:11:23.915Z,76.96
2019-02-05T07:12:23.924Z,77.27
2019-02-05T07:13:23.892Z,76.20
2019-02-05T07:14:23.883Z,76.86
2019-02-05T07:15:23.871Z,75.88
2019-02-05T07:16:23.885Z,76.51
2019-02-05T07:17:23.926Z,75.88
2019-02-05T07:18:23.855Z,75.57
2019-02-05T07:19:23.823Z,75.57
2019-02-05T07:20:23.814Z,76.02
2019-02-05T07:21:23.805Z,75.78
2019-02-05T07:22:23.813Z,76.20
2019-02-05T07:23:23.784Z,76.40
2019-02-05T07:24:23.818Z,76.30
2019-02-05T07:25:23.762Z,76.20
2019-02-05T07:26:23.752Z,75.98
2019-02-05T07:27:23.734Z,76.20
2019-02-05T07:28:23.729Z,76.40
2019-02-05T07:29:23.718Z,76.30
2019-02-05T07:30:23.761Z,76.47
2019-02-05T07:31:23.697Z,75.98
2019-02-05T07:32:23.681Z,75.78
2019-02-05T07:33:23.673Z,75.98
2019-02-05T07:34:23.740Z,76.40
2019-02-05T07:35:23.651Z,76.57
2019-02-05T07:36:23.661Z,75.95
2019-02-05T07:37:23.665Z,76.16
2019-02-05T07:38:23.619Z,76.26
2019-02-05T07:39:23.610Z,75.74
2019-02-05T07:40:23.658Z,75.85
2019-02-05T07:41:23.581Z,76.47
2019-02-05T07:42:23.577Z,75.95
2019-02-05T07:43:23.560Z,76.26
2019-02-05T07:44:23.568Z,76.37
2019-02-05T07:45:23.625Z,76.37
2019-02-05T07:46:23.529Z,76.26
2019-02-05T07:47:23.635Z,76.26
2019-02-05T07:48:23.515Z,76.26
2019-02-05T07:49:23.523Z,76.37
2019-02-05T07:50:23.488Z,76.57
2019-02-05T07:51:23.491Z,75.95
2019-02-05T07:52:23.554Z,76.26
2019-02-05T07:53:23.459Z,76.16
2019-02-05T07:54:23.444Z,76.37
2019-02-05T07:55:23.431Z,76.26
2019-02-05T07:56:23.426Z,75.95
2019-02-05T07:57:23.411Z,75.53
2019-02-05T07:58:23.441Z,75.40
2019-02-05T07:59:23.400Z,75.19
2019-02-05T08:00:23.379Z,75.32
2019-02-05T08:01:23.367Z,75.64
2019-02-05T08:02:23.362Z,75.50
2019-02-05T08:03:23.348Z,75.81
2019-02-05T08:04:23.372Z,76.54
2019-02-05T08:05:23.328Z,76.96
2019-02-05T08:06:23.318Z,77.06
2019-02-05T08:07:23.305Z,75.92
2019-02-05T08:08:23.294Z,76.23
2019-02-05T08:09:23.284Z,75.60
2019-02-05T08:10:23.300Z,75.71
2019-02-05T08:11:23.257Z,75.60
2019-02-05T08:12:23.296Z,76.23
2019-02-05T08:13:23.268Z,76.12
2019-02-05T08:14:23.228Z,76.33
2019-02-05T08:15:23.337Z,75.67
2019-02-05T08:16:23.203Z,75.71
2019-02-05T08:17:23.220Z,75.57
2019-02-05T08:18:23.186Z,75.78
2019-02-05T08:19:23.171Z,75.92
2019-02-05T08:20:23.160Z,76.30
2019-02-05T08:21:23.153Z,75.88
2019-02-05T08:22:23.176Z,75.88
2019-02-05T08:23:23.130Z,75.88
2019-02-05T08:24:23.117Z,75.78
2019-02-05T08:25:23.105Z,75.98
2019-02-05T08:26:23.100Z,76.51
2019-02-05T08:27:23.095Z,75.26
2019-02-05T08:28:23.109Z,75.01
2019-02-05T08:29:23.060Z,74.80
2019-02-05T08:30:23.049Z,74.70
2019-02-05T08:31:23.037Z,74.84
2019-02-05T08:32:23.032Z,74.60
2019-02-05T08:33:23.043Z,74.70
2019-02-05T08:34:23.017Z,74.60
2019-02-05T08:35:23.002Z,74.80
2019-02-05T08:36:22.985Z,75.22
2019-02-05T08:37:23.040Z,74.49
2019-02-05T08:38:22.995Z,74.80
2019-02-05T08:39:22.952Z,74.39
2019-02-05T08:40:22.940Z,74.29
2019-02-05T08:41:22.930Z,74.39
2019-02-05T08:42:22.928Z,74.49
2019-02-05T08:43:22.945Z,74.18
2019-02-05T08:44:22.910Z,73.66
2019-02-05T08:45:22.889Z,74.18
2019-02-05T08:46:22.893Z,74.18
2019-02-05T08:47:22.869Z,74.39
2019-02-05T08:48:22.864Z,73.87
2019-02-05T08:49:22.890Z,74.08
2019-02-05T08:50:22.830Z,73.77
2019-02-05T08:51:22.851Z,73.56
2019-02-05T08:52:22.819Z,73.63
2019-02-05T08:53:22.799Z,73.66
2019-02-05T08:54:22.832Z,73.73
2019-02-05T08:55:22.778Z,73.63
2019-02-05T08:56:23.098Z,73.42
2019-02-05T08:57:22.761Z,73.83
2019-02-05T08:58:30.578Z,73.52
2019-02-05T08:59:23.731Z,73.32
2019-02-05T09:00:22.726Z,73.21
2019-02-05T09:01:22.758Z,73.00
2019-02-05T09:02:22.703Z,73.32
2019-02-05T09:03:22.698Z,72.80
2019-02-05T09:04:22.687Z,73.32
2019-02-05T09:05:22.668Z,72.69
2019-02-05T09:06:22.659Z,72.90
2019-02-05T09:07:22.699Z,71.86
2019-02-05T09:08:22.645Z,72.59
2019-02-05T09:09:22.629Z,73.32
2019-02-05T09:10:22.613Z,72.28
2019-02-05T09:11:22.627Z,72.07
2019-02-05T09:12:22.592Z,71.86
2019-02-05T09:13:22.588Z,71.75
2019-02-05T09:14:22.577Z,72.69
2019-02-05T09:15:29.598Z,72.24
2019-02-05T09:16:23.582Z,73.60
2019-02-05T09:17:24.398Z,72.80
2019-02-05T09:18:22.569Z,72.76
2019-02-05T09:19:22.518Z,72.97
2019-02-05T09:20:22.586Z,72.76
2019-02-05T09:21:22.501Z,72.55
2019-02-05T09:22:22.485Z,71.38
2019-02-05T09:23:22.481Z,71.69
2019-02-05T09:24:22.503Z,72.21
2019-02-05T09:25:22.460Z,71.83
2019-02-05T09:26:22.448Z,71.62
2019-02-05T09:27:22.436Z,71.59
2019-02-05T09:28:22.426Z,72.45
2019-02-05T09:29:33.034Z,72.97
2019-02-05T09:30:23.434Z,72.21
2019-02-05T09:31:22.389Z,72.63
2019-02-05T09:32:22.386Z,71.69
2019-02-05T09:33:22.370Z,71.80
2019-02-05T09:34:22.381Z,71.59
2019-02-05T09:35:22.350Z,72.21
2019-02-05T09:36:22.340Z,72.42
2019-02-05T09:37:22.329Z,72.31
2019-02-05T09:38:22.345Z,72.73
2019-02-05T09:39:22.308Z,72.00
2019-02-05T09:40:22.322Z,71.59
2019-02-05T09:41:22.285Z,72.11
2019-02-05T09:42:22.271Z,71.59
2019-02-05T09:43:22.262Z,71.28
2019-02-05T09:44:22.277Z,71.80
2019-02-05T09:45:22.376Z,71.59
2019-02-05T09:46:22.231Z,71.80
2019-02-05T09:47:22.218Z,71.07
2019-02-05T09:48:22.212Z,71.59
2019-02-05T09:49:22.200Z,71.17
2019-02-05T09:50:22.185Z,71.59
2019-02-05T09:51:22.204Z,71.59
2019-02-05T09:52:22.168Z,72.42
2019-02-05T09:53:22.158Z,71.07
2019-02-05T09:54:22.146Z,71.48
2019-02-05T09:55:22.136Z,71.07
2019-02-05T09:56:22.145Z,71.28
2019-02-05T09:57:22.113Z,71.90
2019-02-05T09:58:22.101Z,71.48
2019-02-05T09:59:22.086Z,72.21
2019-02-05T10:00:22.084Z,71.59
2019-02-05T10:01:22.094Z,71.59
2019-02-05T10:02:22.103Z,71.59
2019-02-05T10:03:22.052Z,72.31
2019-02-05T10:04:22.034Z,72.83
2019-02-05T10:05:22.022Z,73.04
2019-02-05T10:06:22.018Z,72.73
2019-02-05T10:07:22.005Z,72.21
2019-02-05T10:08:22.013Z,72.52
2019-02-05T10:09:21.981Z,72.31
2019-02-05T10:10:21.987Z,73.04
2019-02-05T10:11:21.958Z,72.21
2019-02-05T10:12:21.952Z,72.52
2019-02-05T10:13:21.962Z,72.83
2019-02-05T10:14:21.927Z,72.83
2019-02-05T10:15:21.920Z,73.25
2019-02-05T10:16:21.902Z,73.04
2019-02-05T10:17:21.928Z,72.63
2019-02-05T10:18:21.885Z,72.73
2019-02-05T10:19:21.889Z,73.25
2019-02-05T10:20:21.861Z,73.14
2019-02-05T10:21:21.849Z,72.69
2019-02-05T10:22:21.873Z,73.04
2019-02-05T10:23:21.827Z,73.04
2019-02-05T10:24:21.833Z,73.25
2019-02-05T10:25:21.805Z,73.11
2019-02-05T10:26:21.801Z,73.74
2019-02-05T10:27:21.804Z,73.32
2019-02-05T10:28:21.772Z,73.11
2019-02-05T10:29:21.765Z,73.74
2019-02-05T10:30:21.758Z,73.11
2019-02-05T10:31:21.785Z,75.60
2019-02-05T10:32:21.736Z,76.23
2019-02-05T10:33:21.721Z,76.09
2019-02-05T10:34:21.733Z,75.74
2019-02-05T10:35:21.707Z,74.11
2019-02-05T10:36:21.690Z,73.80
2019-02-05T10:37:21.681Z,73.15
2019-02-05T10:38:21.663Z,72.94
2019-02-05T10:39:21.705Z,73.15
2019-02-05T10:40:21.647Z,73.15
2019-02-05T10:41:21.638Z,73.28
2019-02-05T10:42:21.625Z,72.94
2019-02-05T10:43:21.614Z,72.84
2019-02-05T10:44:21.598Z,72.66
2019-02-05T10:45:21.621Z,71.73
2019-02-05T10:46:21.576Z,72.45
2019-02-05T10:47:21.565Z,73.28
2019-02-05T10:48:21.577Z,73.46
2019-02-05T10:49:21.546Z,74.40
2019-02-05T10:50:21.577Z,73.25
2019-02-05T10:51:21.522Z,73.15
2019-02-05T10:52:21.518Z,72.74
2019-02-05T10:53:21.542Z,72.63
2019-02-05T10:54:21.493Z,72.84
2019-02-05T10:55:21.511Z,72.84
2019-02-05T10:56:21.518Z,72.11
2019-02-05T10:57:21.460Z,71.70
2019-02-05T10:58:21.444Z,71.91
2019-02-05T10:59:21.451Z,72.94
2019-02-05T11:00:21.429Z,73.18
2019-02-05T11:01:21.422Z,73.60
2019-02-05T11:02:21.436Z,73.60
2019-02-05T11:03:21.390Z,73.91
2019-02-05T11:04:21.383Z,73.39
2019-02-05T11:05:21.375Z,73.60
2019-02-05T11:06:21.396Z,74.32
2019-02-05T11:07:21.345Z,73.28
2019-02-05T11:08:21.336Z,73.91
2019-02-05T11:09:21.325Z,74.32
2019-02-05T11:10:21.324Z,74.22
2019-02-05T11:11:21.305Z,74.11
2019-02-05T11:12:21.364Z,74.11
2019-02-05T11:13:21.287Z,75.05
2019-02-05T11:14:21.277Z,74.95
2019-02-05T11:15:21.264Z,74.60
2019-02-05T11:16:21.253Z,74.53
2019-02-05T11:17:21.287Z,74.95
2019-02-05T11:18:21.225Z,75.05
2019-02-05T11:19:21.221Z,74.43
2019-02-05T11:20:21.204Z,74.60
2019-02-05T11:21:21.192Z,74.71
2019-02-05T11:22:21.192Z,74.50
2019-02-05T11:23:21.209Z,74.50
2019-02-05T11:24:21.163Z,74.40
2019-02-05T11:25:21.960Z,74.08
2019-02-05T11:26:21.140Z,73.88
2019-02-05T11:27:21.125Z,74.40
2019-02-05T11:28:21.122Z,73.98
2019-02-05T11:29:21.122Z,74.71
2019-02-05T11:30:21.145Z,74.63
2019-02-05T11:31:21.086Z,73.98
2019-02-05T11:32:21.077Z,74.19
2019-02-05T11:33:21.077Z,74.71
2019-02-05T11:34:21.067Z,74.50
2019-02-05T11:35:21.038Z,75.33
2019-02-05T11:36:21.067Z,75.33
2019-02-05T11:37:21.022Z,76.06
2019-02-05T11:38:21.014Z,75.71
2019-02-05T11:39:20.994Z,75.40
2019-02-05T11:40:20.987Z,75.50
2019-02-05T11:41:20.987Z,74.36
2019-02-05T11:42:20.976Z,74.57
2019-02-05T11:43:20.954Z,73.43
2019-02-05T11:44:20.952Z,73.63
2019-02-05T11:45:20.931Z,73.91
2019-02-05T11:46:20.956Z,73.84
2019-02-05T11:47:20.906Z,74.43
2019-02-05T11:48:20.905Z,74.32
2019-02-05T11:49:20.894Z,73.60
2019-02-05T11:50:20.873Z,73.53
2019-02-05T11:51:20.861Z,73.32
2019-02-05T11:52:20.880Z,74.15
2019-02-05T11:53:20.839Z,73.94
2019-02-05T11:54:20.850Z,74.57
2019-02-05T11:55:20.829Z,74.57
2019-02-05T11:56:20.815Z,74.36
2019-02-05T11:57:20.804Z,74.50
2019-02-05T11:58:20.796Z,74.88
2019-02-05T11:59:20.780Z,75.40
2019-02-05T12:00:31.813Z,74.77
2019-02-05T12:01:21.754Z,74.98
2019-02-05T12:02:20.750Z,75.40
2019-02-05T12:03:20.748Z,75.23
2019-02-05T12:04:20.719Z,75.71
2019-02-05T12:05:20.710Z,75.40
2019-02-05T12:06:20.818Z,75.50
2019-02-05T12:07:20.697Z,75.29
2019-02-05T12:08:20.690Z,74.98
2019-02-05T12:09:20.767Z,75.33
2019-02-05T12:10:20.660Z,75.71
2019-02-05T12:11:20.653Z,76.23
2019-02-05T12:12:20.635Z,76.02
2019-02-05T12:13:20.627Z,76.02
2019-02-05T12:14:20.609Z,75.92
2019-02-05T12:15:20.603Z,75.81
2019-02-05T12:16:20.590Z,76.12
2019-02-05T12:17:20.577Z,76.02
2019-02-05T12:18:20.575Z,75.92
2019-02-05T12:19:20.564Z,75.81
2019-02-05T12:20:20.547Z,75.71
2019-02-05T12:21:20.536Z,76.12
2019-02-05T12:22:20.525Z,75.92
2019-02-05T12:23:20.513Z,76.64
2019-02-05T12:24:20.510Z,75.92
2019-02-05T12:25:20.494Z,75.98
2019-02-05T12:26:20.475Z,75.88
2019-02-05T12:27:20.485Z,75.98
2019-02-05T12:28:20.456Z,75.98
2019-02-05T12:29:20.472Z,75.98
2019-02-05T12:30:20.439Z,76.02
2019-02-05T12:31:20.424Z,75.67
2019-02-05T12:32:20.415Z,76.09
2019-02-05T12:33:20.426Z,75.92
2019-02-05T12:34:20.388Z,75.88
2019-02-05T12:35:20.389Z,75.88
2019-02-05T12:36:20.370Z,75.46
2019-02-05T12:37:20.357Z,76.71
2019-02-05T12:38:20.347Z,75.98
2019-02-05T12:39:20.346Z,75.88
2019-02-05T12:40:20.336Z,75.98
2019-02-05T12:41:20.313Z,76.09
2019-02-05T12:42:20.305Z,75.05
2019-02-05T12:43:20.295Z,75.98
2019-02-05T12:44:20.281Z,75.67
2019-02-05T12:45:20.280Z,75.67
2019-02-05T12:46:20.261Z,75.98
2019-02-05T12:47:20.244Z,76.19
2019-02-05T12:48:20.240Z,75.67
2019-02-05T12:49:20.222Z,75.57
2019-02-05T12:50:20.216Z,75.57
2019-02-05T12:51:20.204Z,76.19
2019-02-05T12:52:20.193Z,75.57
2019-02-05T12:53:20.221Z,75.98
2019-02-05T12:54:20.171Z,76.19
2019-02-05T12:55:20.154Z,76.29
2019-02-05T12:56:20.146Z,75.88
2019-02-05T12:57:20.140Z,75.78
2019-02-05T12:58:20.131Z,75.84
2019-02-05T12:59:20.125Z,75.63
2019-02-05T13:00:20.100Z,76.05
2019-02-05T13:01:20.101Z,76.09
2019-02-05T13:02:20.082Z,75.57
2019-02-05T13:03:20.070Z,75.67
2019-02-05T13:04:20.055Z,76.19
2019-02-05T13:05:20.049Z,76.71
2019-02-05T13:06:20.053Z,75.67
2019-02-05T13:07:20.030Z,75.88
2019-02-05T13:08:20.014Z,76.50
2019-02-05T13:09:20.002Z,76.46
2019-02-05T13:10:19.996Z,76.26
2019-02-05T13:11:19.982Z,75.78
2019-02-05T13:12:19.982Z,75.88
2019-02-05T13:13:19.958Z,75.98
2019-02-05T13:14:19.944Z,75.63
2019-02-05T13:15:19.942Z,75.88
2019-02-05T13:16:19.930Z,76.29
2019-02-05T13:17:19.956Z,75.63
2019-02-05T13:18:19.902Z,75.88
2019-02-05T13:19:19.894Z,76.05
2019-02-05T13:20:19.883Z,75.63
2019-02-05T13:21:19.874Z,75.78
2019-02-05T13:22:19.867Z,75.88
2019-02-05T13:23:19.862Z,76.29
2019-02-05T13:24:19.838Z,76.61
2019-02-05T13:25:19.832Z,76.19
2019-02-05T13:26:19.811Z,75.57
2019-02-05T13:27:19.812Z,75.46
2019-02-05T13:28:19.818Z,75.43
2019-02-05T13:29:19.786Z,76.81
2019-02-05T13:30:19.773Z,76.81
2019-02-05T13:31:19.759Z,77.23
2019-02-05T13:32:19.751Z,77.23
2019-02-05T13:33:19.745Z,77.12
2019-02-05T13:34:19.750Z,77.23
2019-02-05T13:35:19.720Z,77.54
2019-02-05T13:36:22.498Z,77.23
2019-02-05T13:37:19.698Z,76.92
2019-02-05T13:38:19.722Z,77.33
2019-02-05T13:39:19.670Z,77.23
2019-02-05T13:40:19.661Z,77.64
2019-02-05T13:41:19.651Z,77.44
2019-02-05T13:42:19.639Z,77.75
2019-02-05T13:43:19.630Z,77.64
2019-02-05T13:44:19.767Z,77.54
2019-02-05T13:45:19.947Z,77.33
2019-02-05T13:46:19.710Z,77.64
2019-02-05T13:47:19.659Z,77.23
2019-02-05T13:48:19.628Z,77.44
2019-02-05T13:49:19.627Z,77.44
2019-02-05T13:50:19.707Z,77.64
2019-02-05T13:51:20.670Z,77.85
2019-02-05T13:52:19.527Z,77.64
2019-02-05T13:53:19.533Z,77.12
2019-02-05T13:54:19.503Z,77.29
2019-02-05T13:55:19.542Z,77.29
2019-02-05T13:56:19.488Z,78.02
2019-02-05T13:57:19.473Z,77.61
2019-02-05T13:58:19.463Z,78.02
2019-02-05T13:59:19.454Z,77.81
2019-02-05T14:00:19.442Z,77.50
2019-02-05T14:01:20.354Z,77.40
2019-02-05T14:02:19.419Z,77.29
2019-02-05T14:03:19.405Z,78.33
2019-02-05T14:04:19.412Z,78.02
2019-02-05T14:05:19.385Z,77.81
2019-02-05T14:06:19.384Z,77.92
2019-02-05T14:07:19.366Z,77.71
2019-02-05T14:08:19.358Z,78.02
2019-02-05T14:09:19.351Z,77.23
2019-02-05T14:10:19.332Z,78.27
2019-02-05T14:11:19.319Z,78.33
2019-02-05T14:12:21.873Z,78.64
2019-02-05T14:13:19.297Z,78.78
2019-02-05T14:14:19.288Z,78.75
2019-02-05T14:15:19.277Z,78.37
2019-02-05T14:16:19.264Z,78.68
2019-02-05T14:17:19.268Z,78.58
2019-02-05T14:18:22.167Z,78.54
2019-02-05T14:19:19.234Z,78.75
2019-02-05T14:20:19.222Z,78.64
2019-02-05T14:21:19.203Z,78.96
2019-02-05T14:22:19.246Z,78.54
2019-02-05T14:23:19.188Z,78.12
2019-02-05T14:24:19.178Z,78.64
2019-02-05T14:25:19.165Z,78.64
2019-02-05T14:26:19.148Z,78.54
2019-02-05T14:27:19.138Z,78.54
2019-02-05T14:28:19.163Z,78.78
2019-02-05T14:29:19.118Z,78.68
2019-02-05T14:30:19.115Z,78.85
2019-02-05T14:31:19.104Z,78.68
2019-02-05T14:32:19.083Z,78.85
2019-02-05T14:33:19.079Z,78.75
2019-02-05T14:34:19.075Z,78.44
2019-02-05T14:35:19.054Z,78.44
2019-02-05T14:36:19.037Z,78.85
2019-02-05T14:37:19.032Z,78.64
2019-02-05T14:38:19.035Z,78.64
2019-02-05T14:39:19.003Z,78.33
2019-02-05T14:40:19.005Z,78.68
2019-02-05T14:41:18.992Z,78.75
2019-02-05T14:42:18.981Z,78.54
2019-02-05T14:43:18.973Z,78.64
2019-02-05T14:44:18.954Z,78.75
2019-02-05T14:45:18.945Z,78.64
2019-02-05T14:46:18.928Z,79.27
2019-02-05T14:47:18.921Z,78.27
2019-02-05T14:48:18.959Z,79.30
2019-02-05T14:49:18.898Z,79.78
2019-02-05T14:50:18.891Z,79.37
2019-02-05T14:51:18.889Z,79.27
2019-02-05T14:52:18.869Z,79.99
2019-02-05T14:53:18.854Z,79.68
2019-02-05T14:54:18.853Z,79.16
2019-02-05T14:55:18.828Z,78.44
2019-02-05T14:56:18.853Z,78.23
2019-02-05T14:57:18.816Z,78.96
2019-02-05T14:58:18.803Z,78.96
2019-02-05T14:59:18.794Z,79.27
2019-02-05T15:00:18.780Z,79.16
2019-02-05T15:01:18.768Z,79.78
2019-02-05T15:02:18.761Z,79.47
2019-02-05T15:03:18.757Z,78.23